Airfield :
LOGIN :

Register | Disclaimer

   EN    FR    IT 

 










Legend :    VFR   Marginal VFR   IFR   Intensive IFR   Very Intensive IFR
Visi :
Ceiling :
>= 8 km
>= 3000ft
5 to 8 km
1000 to 3000 ft
1500m to 5 km
500 to 1000 ft
800 to 1500m
200 to 500 ft
< 800m
< 200 ft
Symbols :   Thunderstorms  Fog  Heavy snow  Heavy precipitations  Wind > 20 kt
SIGMETs :     Misc.  Thunderstorms  Icing  Turbulence  Mountain Waves  Volcanic Ashes






- Airport Elevation : 735 ft
- IATA code : EGO


UUOB - Belgorod

CURRENT METAR :
  • 021230Z 10004MPS 5000 -SN BR OVC007 M05/M06 Q1030 R11/410355 NOSIG

EXPIRED METARs :
  • 021200Z 10004MPS 7000 -SN OVC008 M05/M06 Q1030 R11/410355 NOSIG
  • 021130Z 10004MPS 7000 -SN OVC008 M05/M07 Q1030 R11/410355 NOSIG
  • 021100Z 09005MPS 9000 OVC010 M05/M07 Q1030 R11/410355 NOSIG
  • 021030Z 09005MPS 9999 OVC013 M05/M07 Q1030 R11/410355 NOSIG
  • 021000Z 09005MPS 9999 OVC011 M06/M07 Q1030 R11/410355 NOSIG

TAF TAF UUOB
Valid from the 02 at 12:00 until the 02 at 21:00 UTC


021100Z 0212/0221 09006MPS 7000 BKN011
TEMPO 0212/0215 -SN BKN007
BECMG 0216/0218 BKN016



MET'MAP, your aeronautical weather chart ! - Copyright ORBIFLY December 2007 - Disclaimer

ORBIFLY MET'MAP TEAM :

Programming & Development : Alexandra Zaïnal
Concept & original design : Baudouin d'Aumeries
Assistance for programming : Marc-Olivier Méhu
Technical & hardware support : Manuel Goepfert

Contact : metmap@orbifly.com




SOURCES & CREDITS :

   NOAA